createdAt,value
2023-05-03T00:00:13.850Z,7.15
2023-05-03T00:02:44.685Z,8.32
2023-05-03T00:05:13.178Z,6.50
2023-05-03T00:07:43.133Z,8.13
2023-05-03T00:10:12.924Z,7.72
2023-05-03T00:12:40.760Z,9.50
2023-05-03T00:15:08.825Z,12.15
2023-05-03T00:17:36.452Z,9.75
2023-05-03T00:20:04.813Z,11.85
2023-05-03T00:22:32.447Z,17.98
2023-05-03T00:25:02.627Z,14.77
2023-05-03T00:27:29.460Z,12.70
2023-05-03T00:29:58.872Z,15.07
2023-05-03T00:32:26.304Z,12.38
2023-05-03T00:34:57.395Z,17.40
2023-05-03T00:37:25.256Z,16.17
2023-05-03T00:39:52.751Z,13.73
2023-05-03T00:42:19.786Z,24.58
2023-05-03T00:44:46.617Z,13.32
2023-05-03T00:47:15.806Z,13.38
2023-05-03T00:49:42.923Z,15.18
2023-05-03T00:52:10.214Z,11.27
2023-05-03T00:54:38.040Z,16.75
2023-05-03T00:57:05.720Z,13.18
2023-05-03T00:59:34.454Z,9.93
2023-05-03T01:02:02.103Z,15.18
2023-05-03T01:04:29.460Z,14.20
2023-05-03T01:07:12.388Z,12.25
2023-05-03T01:09:46.141Z,11.75
2023-05-03T01:12:20.811Z,8.85
2023-05-03T01:15:01.701Z,8.65
2023-05-03T01:17:29.915Z,12.55
2023-05-03T01:20:00.841Z,9.30
2023-05-03T01:22:44.083Z,12.73
2023-05-03T01:25:15.833Z,12.63
2023-05-03T01:27:43.254Z,12.02
2023-05-03T01:30:11.955Z,15.65
2023-05-03T01:32:41.921Z,13.00
2023-05-03T01:35:09.198Z,10.30
2023-05-03T01:37:36.844Z,9.93
2023-05-03T01:40:07.432Z,11.45
2023-05-03T01:42:37.171Z,10.43
2023-05-03T01:45:07.817Z,12.35
2023-05-03T01:47:34.908Z,10.13
2023-05-03T01:50:04.182Z,11.25
2023-05-03T01:52:31.346Z,12.57
2023-05-03T01:54:59.564Z,12.50
2023-05-03T01:57:26.471Z,10.43
2023-05-03T01:59:53.406Z,16.77
2023-05-03T02:02:20.689Z,12.98
2023-05-03T02:04:47.829Z,15.27
2023-05-03T02:07:14.729Z,13.20
2023-05-03T02:09:41.732Z,18.10
2023-05-03T02:12:09.967Z,16.20
2023-05-03T02:14:37.027Z,16.58
2023-05-03T02:17:03.875Z,23.92
2023-05-03T02:19:30.836Z,14.95
2023-05-03T02:21:57.763Z,18.25
2023-05-03T02:24:24.719Z,15.45
2023-05-03T02:26:51.578Z,16.40
2023-05-03T02:29:18.527Z,15.65
2023-05-03T02:31:47.872Z,14.52
2023-05-03T02:34:14.762Z,18.67
2023-05-03T02:36:41.560Z,16.08
2023-05-03T02:39:08.394Z,15.35
2023-05-03T02:41:35.271Z,14.18
2023-05-03T02:44:04.337Z,21.77
2023-05-03T02:46:31.405Z,21.40
2023-05-03T02:48:58.312Z,18.15
2023-05-03T02:51:26.966Z,12.90
2023-05-03T02:53:56.503Z,15.18
2023-05-03T02:56:26.016Z,18.10
2023-05-03T02:58:53.411Z,22.77
2023-05-03T03:01:20.566Z,14.23
2023-05-03T03:03:48.229Z,16.13
2023-05-03T03:06:15.165Z,17.25
2023-05-03T03:08:41.976Z,15.25
2023-05-03T03:11:08.883Z,17.42
2023-05-03T03:13:39.712Z,19.90
2023-05-03T03:16:07.898Z,17.05
2023-05-03T03:18:34.858Z,18.05
2023-05-03T03:21:02.350Z,19.38
2023-05-03T03:23:29.652Z,17.45
2023-05-03T03:25:56.477Z,12.13
2023-05-03T03:28:23.403Z,18.48
2023-05-03T03:30:50.285Z,16.30
2023-05-03T03:33:17.185Z,14.73
2023-05-03T03:35:45.176Z,21.73
2023-05-03T03:38:12.119Z,14.60
2023-05-03T03:40:38.951Z,13.77
2023-05-03T03:43:05.777Z,13.18
2023-05-03T03:45:32.623Z,10.50
2023-05-03T03:48:00.672Z,9.60
2023-05-03T03:50:27.699Z,15.88
2023-05-03T03:52:54.546Z,13.65
2023-05-03T03:55:21.560Z,13.40
2023-05-03T03:57:48.459Z,11.40
2023-05-03T04:00:15.850Z,11.40
2023-05-03T04:02:42.854Z,10.20
2023-05-03T04:05:09.937Z,11.88
2023-05-03T04:07:36.832Z,12.10
2023-05-03T04:10:04.055Z,8.88
2023-05-03T04:12:31.163Z,11.57
2023-05-03T04:14:57.999Z,9.68
2023-05-03T04:17:24.926Z,10.65
2023-05-03T04:19:52.504Z,12.45
2023-05-03T04:22:19.392Z,9.25
2023-05-03T04:24:46.281Z,12.52
2023-05-03T04:27:14.821Z,8.15
2023-05-03T04:29:41.980Z,8.25
2023-05-03T04:32:09.934Z,12.93
2023-05-03T04:34:37.787Z,10.27
2023-05-03T04:37:05.288Z,9.77
2023-05-03T04:39:32.174Z,8.38
2023-05-03T04:41:59.012Z,9.98
2023-05-03T04:44:26.109Z,15.77
2023-05-03T04:46:52.941Z,11.18
2023-05-03T04:49:19.755Z,12.80
2023-05-03T04:51:46.603Z,11.48
2023-05-03T04:54:13.444Z,8.25
2023-05-03T04:56:40.380Z,9.68
2023-05-03T04:59:07.570Z,8.43
2023-05-03T05:01:34.440Z,9.80
2023-05-03T05:04:03.878Z,11.68
2023-05-03T05:06:31.565Z,14.48
2023-05-03T05:08:58.461Z,9.75
2023-05-03T05:11:29.966Z,15.52
2023-05-03T05:14:01.836Z,14.52
2023-05-03T05:16:28.698Z,8.35
2023-05-03T05:18:57.635Z,9.55
2023-05-03T05:21:27.062Z,8.80
2023-05-03T05:23:53.947Z,11.32
2023-05-03T05:26:21.025Z,9.82
2023-05-03T05:28:47.970Z,11.43
2023-05-03T05:31:17.351Z,11.27
2023-05-03T05:33:46.753Z,18.55
2023-05-03T05:36:16.717Z,13.65
2023-05-03T05:38:43.576Z,10.73
2023-05-03T05:41:10.501Z,7.80
2023-05-03T05:43:39.560Z,13.82
2023-05-03T05:46:08.737Z,10.07
2023-05-03T05:48:35.654Z,9.75
2023-05-03T05:51:02.548Z,9.23
2023-05-03T05:53:29.364Z,14.85
2023-05-03T05:55:58.602Z,10.02
2023-05-03T05:58:25.433Z,10.88
2023-05-03T06:00:52.704Z,10.43
2023-05-03T06:03:21.772Z,9.10
2023-05-03T06:05:49.346Z,9.07
2023-05-03T06:08:16.188Z,10.40
2023-05-03T06:10:43.034Z,7.38
2023-05-03T06:13:10.022Z,11.18
2023-05-03T06:15:36.912Z,7.93
2023-05-03T06:18:04.704Z,8.80
2023-05-03T06:20:31.633Z,8.98
2023-05-03T06:22:58.418Z,5.72
2023-05-03T06:25:27.478Z,7.07
2023-05-03T06:27:54.336Z,7.38
2023-05-03T06:30:21.240Z,5.63
2023-05-03T06:32:48.852Z,5.53
2023-05-03T06:35:15.912Z,6.57
2023-05-03T06:37:43.851Z,5.38
2023-05-03T06:40:11.321Z,5.22
2023-05-03T06:42:38.159Z,4.72
2023-05-03T06:45:08.434Z,4.05
2023-05-03T06:47:37.250Z,4.07
2023-05-03T06:50:05.229Z,5.63
2023-05-03T06:52:32.245Z,4.93
2023-05-03T06:54:59.344Z,5.80
2023-05-03T06:57:28.206Z,3.08
2023-05-03T06:59:55.762Z,6.10
2023-05-03T07:02:22.973Z,4.72
2023-05-03T07:04:49.967Z,3.85
2023-05-03T07:07:19.012Z,4.50
2023-05-03T07:09:45.990Z,4.55
2023-05-03T07:12:12.943Z,7.22
2023-05-03T07:14:40.712Z,6.95
2023-05-03T07:17:07.958Z,6.03
2023-05-03T07:19:34.972Z,3.70
2023-05-03T07:22:03.458Z,4.20
2023-05-03T07:24:30.372Z,3.90
2023-05-03T07:26:58.225Z,3.70
2023-05-03T07:29:26.215Z,3.80
2023-05-03T07:31:53.820Z,4.00
2023-05-03T07:34:21.226Z,5.07
2023-05-03T07:36:48.236Z,3.58
2023-05-03T07:39:15.164Z,3.17
2023-05-03T07:41:42.007Z,3.55
2023-05-03T07:44:08.870Z,2.33
2023-05-03T07:46:35.859Z,8.20
2023-05-03T07:49:05.124Z,3.30
2023-05-03T07:51:38.710Z,3.42
2023-05-03T07:54:05.987Z,3.22
2023-05-03T07:56:32.925Z,5.30
2023-05-03T07:59:09.343Z,4.30
2023-05-03T08:01:37.658Z,3.58
2023-05-03T08:04:04.993Z,6.90
2023-05-03T08:06:32.998Z,2.92
2023-05-03T08:08:59.916Z,3.42
2023-05-03T08:11:30.037Z,3.38
2023-05-03T08:13:57.057Z,2.75
2023-05-03T08:16:24.283Z,4.72
2023-05-03T08:18:51.752Z,4.10
2023-05-03T08:21:19.370Z,4.47
2023-05-03T08:23:46.527Z,3.80
2023-05-03T08:26:14.745Z,5.25
2023-05-03T08:28:44.540Z,3.83
2023-05-03T08:31:12.638Z,3.60
2023-05-03T08:33:41.204Z,2.17
2023-05-03T08:36:08.322Z,2.90
2023-05-03T08:38:36.841Z,2.97
2023-05-03T08:41:16.532Z,5.25
2023-05-03T08:43:46.258Z,2.72
2023-05-03T08:46:13.864Z,4.65
2023-05-03T08:48:40.850Z,2.00
2023-05-03T08:51:09.109Z,5.45
2023-05-03T08:53:36.211Z,2.13
2023-05-03T08:56:07.926Z,4.97
2023-05-03T08:58:38.133Z,3.88
2023-05-03T09:01:06.385Z,5.53
2023-05-03T09:03:34.513Z,3.65
2023-05-03T09:06:02.264Z,3.00
2023-05-03T09:08:30.000Z,3.20
2023-05-03T09:10:57.742Z,1.92
2023-05-03T09:13:34.648Z,2.08
2023-05-03T09:16:02.414Z,4.60
2023-05-03T09:18:30.751Z,8.25
2023-05-03T09:20:59.095Z,4.93
2023-05-03T09:23:26.136Z,3.13
2023-05-03T09:25:56.032Z,3.80
2023-05-03T09:28:25.523Z,3.53
2023-05-03T09:31:06.861Z,3.17
2023-05-03T09:33:37.613Z,4.03
2023-05-03T09:36:06.106Z,2.25
2023-05-03T09:38:39.379Z,3.63
2023-05-03T09:41:09.144Z,2.97
2023-05-03T09:43:36.730Z,5.30
2023-05-03T09:46:12.072Z,3.28
2023-05-03T09:48:40.297Z,2.35
2023-05-03T09:51:09.168Z,1.98
2023-05-03T09:53:40.127Z,4.45
2023-05-03T09:56:12.722Z,2.97
2023-05-03T09:58:43.933Z,2.58
2023-05-03T10:01:11.250Z,3.72
2023-05-03T10:03:47.698Z,2.83
2023-05-03T10:06:33.046Z,4.95
2023-05-03T10:09:02.675Z,3.08
2023-05-03T10:11:33.609Z,2.55
2023-05-03T10:14:01.433Z,4.82
2023-05-03T10:16:34.313Z,3.05
2023-05-03T10:19:14.761Z,4.30
2023-05-03T10:21:55.625Z,3.17
2023-05-03T10:24:22.984Z,3.75
2023-05-03T10:26:51.565Z,5.35
2023-05-03T10:29:37.799Z,3.15
2023-05-03T10:32:05.985Z,3.15
2023-05-03T10:34:40.081Z,2.38
2023-05-03T10:37:12.004Z,1.92
2023-05-03T10:39:47.589Z,3.60
2023-05-03T10:42:15.114Z,2.42
2023-05-03T10:44:53.979Z,1.95
2023-05-03T10:47:25.297Z,3.03
2023-05-03T10:50:17.798Z,6.88
2023-05-03T10:52:48.172Z,2.47
2023-05-03T10:55:24.924Z,1.60
2023-05-03T10:57:56.069Z,3.28
2023-05-03T11:00:23.375Z,3.40
2023-05-03T11:03:25.093Z,3.65
2023-05-03T11:05:54.158Z,4.25
2023-05-03T11:08:37.342Z,2.72
2023-05-03T11:11:09.998Z,2.50
2023-05-03T11:13:37.664Z,3.08
2023-05-03T11:16:06.262Z,6.93
2023-05-03T11:18:37.078Z,2.90
2023-05-03T11:21:07.389Z,4.22
2023-05-03T11:23:34.762Z,2.95
2023-05-03T11:26:02.134Z,5.32
2023-05-03T11:28:29.428Z,3.33
2023-05-03T11:30:57.756Z,4.43
2023-05-03T11:33:30.972Z,4.45
2023-05-03T11:36:01.033Z,3.25
2023-05-03T11:38:28.468Z,3.53
2023-05-03T11:40:58.319Z,2.65
2023-05-03T11:43:29.883Z,3.17
2023-05-03T11:45:58.976Z,2.55
2023-05-03T11:48:27.908Z,3.70
2023-05-03T11:50:56.242Z,3.15
2023-05-03T11:53:27.752Z,4.15
2023-05-03T11:55:55.153Z,2.63
2023-05-03T11:58:26.947Z,3.05
2023-05-03T12:03:32.349Z,3.40
2023-05-03T12:06:00.485Z,2.13
2023-05-03T12:08:42.437Z,2.70
2023-05-03T12:11:10.633Z,3.95
2023-05-03T12:13:40.481Z,8.15
2023-05-03T12:16:14.282Z,4.88
2023-05-03T12:18:48.252Z,2.80
2023-05-03T12:23:50.642Z,7.32
2023-05-03T12:26:20.348Z,6.00
2023-05-03T12:28:49.288Z,5.93
2023-05-03T12:31:18.421Z,13.50
2023-05-03T12:36:26.195Z,5.05
2023-05-03T12:38:56.589Z,4.38
2023-05-03T12:42:04.688Z,5.28
2023-05-03T12:44:18.374Z,9.48
2023-05-03T12:46:46.091Z,5.20
2023-05-03T12:49:16.611Z,5.53
2023-05-03T12:51:50.133Z,2.85
2023-05-03T12:54:33.690Z,2.58
2023-05-03T12:57:09.110Z,5.18
2023-05-03T12:59:42.882Z,2.67
2023-05-03T13:05:11.528Z,4.90
2023-05-03T13:07:32.380Z,3.90
2023-05-03T13:12:36.541Z,2.67
2023-05-03T13:15:08.281Z,6.10
2023-05-03T13:17:35.556Z,2.70
2023-05-03T13:20:02.560Z,3.28
2023-05-03T13:22:29.485Z,7.55
2023-05-03T13:24:56.380Z,10.50
2023-05-03T13:27:23.457Z,3.40
2023-05-03T13:29:50.306Z,5.03
2023-05-03T13:32:17.376Z,3.67
2023-05-03T13:34:44.439Z,3.67
2023-05-03T13:37:18.480Z,3.95
2023-05-03T13:39:46.038Z,2.47
2023-05-03T13:42:12.846Z,3.50
2023-05-03T13:44:39.702Z,5.18
2023-05-03T13:47:06.973Z,5.03
2023-05-03T13:49:35.123Z,5.22
2023-05-03T13:52:01.992Z,1.83
2023-05-03T13:54:30.225Z,3.13
2023-05-03T13:56:58.887Z,2.47
2023-05-03T13:59:26.011Z,2.17
2023-05-03T14:01:53.086Z,4.30
2023-05-03T14:04:20.079Z,5.13
2023-05-03T14:06:47.195Z,3.60
2023-05-03T14:09:14.082Z,5.35
2023-05-03T14:11:41.367Z,2.80
2023-05-03T14:14:08.366Z,5.22
2023-05-03T14:16:41.250Z,2.60
2023-05-03T14:19:11.275Z,4.75
2023-05-03T14:21:38.703Z,8.02
2023-05-03T14:24:06.790Z,3.05
2023-05-03T14:26:37.017Z,3.08
2023-05-03T14:29:04.355Z,2.53
2023-05-03T14:31:31.966Z,6.97
2023-05-03T14:34:00.092Z,5.88
2023-05-03T14:36:35.920Z,3.33
2023-05-03T14:39:04.384Z,2.33
2023-05-03T14:41:34.549Z,4.80
2023-05-03T14:44:01.441Z,3.03
2023-05-03T14:46:28.374Z,4.05
2023-05-03T14:48:56.365Z,3.05
2023-05-03T14:51:23.910Z,4.18
2023-05-03T14:53:50.874Z,6.28
2023-05-03T14:56:17.895Z,2.80
2023-05-03T14:58:44.744Z,3.13
2023-05-03T15:01:21.387Z,2.67
2023-05-03T15:03:48.672Z,3.50
2023-05-03T15:06:16.793Z,5.72
2023-05-03T15:08:43.617Z,5.03
2023-05-03T15:11:11.066Z,6.15
2023-05-03T15:13:38.087Z,7.28
2023-05-03T15:16:07.516Z,4.07
2023-05-03T15:18:34.377Z,4.85
2023-05-03T15:21:01.236Z,3.40
2023-05-03T15:23:28.281Z,2.60
2023-05-03T15:25:55.178Z,5.22
2023-05-03T15:28:22.183Z,5.43
2023-05-03T15:30:50.849Z,2.90
2023-05-03T15:33:17.806Z,6.38
2023-05-03T15:35:44.722Z,4.28
2023-05-03T15:38:11.572Z,5.32
2023-05-03T15:40:38.821Z,3.72
2023-05-03T15:43:05.956Z,7.22
2023-05-03T15:45:33.037Z,7.32
2023-05-03T15:48:00.227Z,4.80
2023-05-03T15:50:27.203Z,11.88
2023-05-03T15:52:53.990Z,2.17
2023-05-03T15:55:20.996Z,3.92
2023-05-03T15:57:48.123Z,3.00
2023-05-03T16:00:20.360Z,4.43
2023-05-03T16:02:47.239Z,8.45
2023-05-03T16:05:14.225Z,2.78
2023-05-03T16:07:41.322Z,4.55
2023-05-03T16:10:09.471Z,5.40
2023-05-03T16:12:37.154Z,12.02
2023-05-03T16:15:05.427Z,3.88
2023-05-03T16:17:35.186Z,7.03
2023-05-03T16:20:05.477Z,2.88
2023-05-03T16:22:32.614Z,3.22
2023-05-03T16:24:59.395Z,4.35
2023-05-03T16:27:26.405Z,3.90
2023-05-03T16:29:54.326Z,7.13
2023-05-03T16:32:23.307Z,8.55
2023-05-03T16:34:50.594Z,4.07
2023-05-03T16:37:17.673Z,4.53
2023-05-03T16:39:46.819Z,5.15
2023-05-03T16:42:13.656Z,6.20
2023-05-03T16:44:40.473Z,14.23
2023-05-03T16:47:07.584Z,7.40
2023-05-03T16:49:37.107Z,5.55
2023-05-03T16:52:04.130Z,6.25
2023-05-03T16:54:31.231Z,9.20
2023-05-03T16:56:58.166Z,9.50
2023-05-03T16:59:25.053Z,12.30
2023-05-03T17:01:52.080Z,2.63
2023-05-03T17:04:18.896Z,12.25
2023-05-03T17:06:47.837Z,8.52
2023-05-03T17:09:14.896Z,14.90
2023-05-03T17:11:41.757Z,11.40
2023-05-03T17:14:08.758Z,3.75
2023-05-03T17:16:40.804Z,7.90
2023-05-03T17:21:36.442Z,19.45
2023-05-03T17:24:03.548Z,12.43
2023-05-03T17:26:34.262Z,6.00
2023-05-03T17:29:01.160Z,8.00
2023-05-03T17:31:28.385Z,4.80
2023-05-03T17:33:57.705Z,5.05
2023-05-03T17:36:27.371Z,12.30
2023-05-03T17:38:57.541Z,4.78
2023-05-03T17:41:24.504Z,7.18
2023-05-03T17:43:51.668Z,6.40
2023-05-03T17:46:21.149Z,6.85
2023-05-03T17:48:48.683Z,3.10
2023-05-03T17:51:15.777Z,6.70
2023-05-03T17:53:43.210Z,3.13
2023-05-03T17:56:17.162Z,2.60
2023-05-03T17:58:44.897Z,3.78
2023-05-03T18:01:13.359Z,6.03
2023-05-03T18:03:41.874Z,5.32
2023-05-03T18:06:10.888Z,3.95
2023-05-03T18:09:02.674Z,2.67
2023-05-03T18:11:29.632Z,5.47
2023-05-03T18:13:58.887Z,3.05
2023-05-03T18:16:26.338Z,3.28
2023-05-03T18:18:53.504Z,9.88
2023-05-03T18:21:22.265Z,6.07
2023-05-03T18:23:52.272Z,3.63
2023-05-03T18:26:19.135Z,5.93
2023-05-03T18:28:45.973Z,10.07
2023-05-03T18:31:13.792Z,11.77
2023-05-03T18:33:40.769Z,7.97
2023-05-03T18:36:12.110Z,9.18
2023-05-03T18:38:39.902Z,5.50
2023-05-03T18:41:14.209Z,24.63
2023-05-03T18:43:50.669Z,21.52
2023-05-03T18:46:21.075Z,13.32
2023-05-03T18:48:48.030Z,25.67
2023-05-03T18:51:15.683Z,14.73
2023-05-03T18:53:43.571Z,18.00
2023-05-03T18:56:10.493Z,12.27
2023-05-03T18:58:39.747Z,9.35
2023-05-03T19:01:07.723Z,8.55
2023-05-03T19:03:34.971Z,11.45
2023-05-03T19:06:04.096Z,7.95
2023-05-03T19:08:31.679Z,13.13
2023-05-03T19:11:07.501Z,13.23
2023-05-03T19:13:34.648Z,9.07
2023-05-03T19:16:01.665Z,7.15
2023-05-03T19:18:31.748Z,7.32
2023-05-03T19:20:58.868Z,12.50
2023-05-03T19:23:25.787Z,10.35
2023-05-03T19:25:52.699Z,6.78
2023-05-03T19:28:19.679Z,9.73
2023-05-03T19:30:51.405Z,18.58
2023-05-03T19:33:19.352Z,13.73
2023-05-03T19:35:46.387Z,20.40
2023-05-03T19:38:14.158Z,17.25
2023-05-03T19:40:41.553Z,15.43
2023-05-03T19:43:08.457Z,17.15
2023-05-03T19:45:41.950Z,20.05
2023-05-03T19:48:10.441Z,13.80
2023-05-03T19:50:37.532Z,24.08
2023-05-03T19:53:04.502Z,17.27
2023-05-03T19:55:31.449Z,15.20
2023-05-03T19:57:58.488Z,18.02
2023-05-03T20:00:27.088Z,13.88
2023-05-03T20:02:54.451Z,17.48
2023-05-03T20:05:21.751Z,16.58
2023-05-03T20:07:49.168Z,19.90
2023-05-03T20:10:16.307Z,25.00
2023-05-03T20:12:43.257Z,25.55
2023-05-03T20:15:11.577Z,36.03
2023-05-03T20:17:38.784Z,27.75
2023-05-03T20:20:12.201Z,28.30
2023-05-03T20:22:39.039Z,41.42
2023-05-03T20:25:07.233Z,38.75
2023-05-03T20:27:34.087Z,36.97
2023-05-03T20:30:01.242Z,37.15
2023-05-03T20:32:28.427Z,40.05
2023-05-03T20:34:55.417Z,37.65
2023-05-03T20:37:22.487Z,32.28
2023-05-03T20:39:49.370Z,41.72
2023-05-03T20:42:16.237Z,39.40
2023-05-03T20:44:43.163Z,47.70
2023-05-03T20:47:10.059Z,38.25
2023-05-03T20:49:38.756Z,32.47
2023-05-03T20:52:05.999Z,37.03
2023-05-03T20:54:32.871Z,37.10
2023-05-03T20:57:00.360Z,34.10
2023-05-03T20:59:27.233Z,34.42
2023-05-03T21:01:56.524Z,35.45
2023-05-03T21:04:25.453Z,26.25
2023-05-03T21:06:52.301Z,33.25
2023-05-03T21:09:19.311Z,32.65
2023-05-03T21:11:46.235Z,28.60
2023-05-03T21:14:13.732Z,29.67
2023-05-03T21:16:40.685Z,26.75
2023-05-03T21:19:07.721Z,23.92
2023-05-03T21:21:34.604Z,26.27
2023-05-03T21:24:01.701Z,30.88
2023-05-03T21:26:29.325Z,27.45
2023-05-03T21:28:56.394Z,25.27
2023-05-03T21:31:23.351Z,21.15
2023-05-03T21:33:50.332Z,26.60
2023-05-03T21:36:17.239Z,19.02
2023-05-03T21:38:46.626Z,19.70
2023-05-03T21:41:13.921Z,22.25
2023-05-03T21:43:40.878Z,17.05
2023-05-03T21:46:08.362Z,23.48
2023-05-03T21:48:37.263Z,21.80
2023-05-03T21:51:04.630Z,19.55
2023-05-03T21:53:31.755Z,18.25
2023-05-03T21:55:58.613Z,18.92
2023-05-03T21:58:26.089Z,15.63
2023-05-03T22:00:55.570Z,17.42
2023-05-03T22:03:22.480Z,16.20
2023-05-03T22:05:51.428Z,14.25
2023-05-03T22:08:18.688Z,16.90
2023-05-03T22:10:47.784Z,21.45
2023-05-03T22:13:14.765Z,18.70
2023-05-03T22:15:41.719Z,14.77
2023-05-03T22:18:08.613Z,22.98
2023-05-03T22:20:35.840Z,22.10
2023-05-03T22:23:02.867Z,16.75
2023-05-03T22:25:32.457Z,20.65
2023-05-03T22:27:59.730Z,14.52
2023-05-03T22:30:26.759Z,14.77
2023-05-03T22:32:54.023Z,14.77
2023-05-03T22:35:21.314Z,15.10
2023-05-03T22:37:48.331Z,17.52
2023-05-03T22:40:15.207Z,16.42
2023-05-03T22:42:42.211Z,14.73
2023-05-03T22:45:09.687Z,15.63
2023-05-03T22:47:36.618Z,20.40
2023-05-03T22:50:03.828Z,15.45
2023-05-03T22:52:31.961Z,14.15
2023-05-03T22:54:58.939Z,11.38
2023-05-03T22:57:26.204Z,13.00
2023-05-03T22:59:53.139Z,11.60
2023-05-03T23:02:20.054Z,16.05
2023-05-03T23:04:47.296Z,12.05
2023-05-03T23:07:14.763Z,17.10
2023-05-03T23:09:41.690Z,15.55
2023-05-03T23:12:08.511Z,12.05
2023-05-03T23:14:35.393Z,11.90
2023-05-03T23:17:02.260Z,11.50
2023-05-03T23:19:29.181Z,13.13
2023-05-03T23:21:56.172Z,20.02
2023-05-03T23:24:23.041Z,12.23
2023-05-03T23:26:49.937Z,13.32
2023-05-03T23:29:17.325Z,12.90
2023-05-03T23:31:44.560Z,12.45
2023-05-03T23:34:11.889Z,13.25
2023-05-03T23:36:38.786Z,13.60
2023-05-03T23:39:05.648Z,11.73
2023-05-03T23:41:34.073Z,13.27
2023-05-03T23:44:01.126Z,13.23
2023-05-03T23:46:28.100Z,10.70
2023-05-03T23:48:55.164Z,13.10
2023-05-03T23:51:22.030Z,10.50
2023-05-03T23:53:48.903Z,13.48
2023-05-03T23:56:15.984Z,13.68
2023-05-03T23:58:42.939Z,14.55
